sensor_id;sensor_type;location;lat;lon;timestamp;P1;durP1;ratioP1;P2;durP2;ratioP2
15878;SDS011;61999;51.514;14.614;2023-03-20T00:02:21;2.10;;;1.90;;
15878;SDS011;61999;51.514;14.614;2023-03-20T00:04:52;1.70;;;1.60;;
15878;SDS011;61999;51.514;14.614;2023-03-20T00:07:19;2.10;;;1.83;;
15878;SDS011;61999;51.514;14.614;2023-03-20T00:09:47;2.67;;;1.80;;
15878;SDS011;61999;51.514;14.614;2023-03-20T00:12:16;2.50;;;1.60;;
15878;SDS011;61999;51.514;14.614;2023-03-20T00:14:50;2.40;;;2.00;;
15878;SDS011;61999;51.514;14.614;2023-03-20T00:17:19;2.07;;;1.83;;
15878;SDS011;61999;51.514;14.614;2023-03-20T00:19:47;2.17;;;2.07;;
15878;SDS011;61999;51.514;14.614;2023-03-20T00:22:16;2.63;;;2.43;;
15878;SDS011;61999;51.514;14.614;2023-03-20T00:24:44;2.43;;;2.23;;
15878;SDS011;61999;51.514;14.614;2023-03-20T00:27:13;2.50;;;2.30;;
15878;SDS011;61999;51.514;14.614;2023-03-20T00:29:43;3.47;;;3.17;;
15878;SDS011;61999;51.514;14.614;2023-03-20T00:32:12;4.17;;;2.90;;
15878;SDS011;61999;51.514;14.614;2023-03-20T00:34:41;4.73;;;3.40;;
15878;SDS011;61999;51.514;14.614;2023-03-20T00:37:09;3.13;;;2.93;;
15878;SDS011;61999;51.514;14.614;2023-03-20T00:39:39;3.60;;;2.73;;
15878;SDS011;61999;51.514;14.614;2023-03-20T00:42:09;3.23;;;3.03;;
15878;SDS011;61999;51.514;14.614;2023-03-20T00:44:47;3.33;;;2.80;;
15878;SDS011;61999;51.514;14.614;2023-03-20T00:47:20;3.43;;;2.90;;
15878;SDS011;61999;51.514;14.614;2023-03-20T00:49:50;3.20;;;2.90;;
15878;SDS011;61999;51.514;14.614;2023-03-20T00:52:21;3.20;;;2.90;;
15878;SDS011;61999;51.514;14.614;2023-03-20T00:54:52;3.97;;;2.40;;
15878;SDS011;61999;51.514;14.614;2023-03-20T00:57:20;3.10;;;2.80;;
15878;SDS011;61999;51.514;14.614;2023-03-20T00:59:54;3.00;;;2.80;;
15878;SDS011;61999;51.514;14.614;2023-03-20T01:02:27;3.60;;;3.30;;
15878;SDS011;61999;51.514;14.614;2023-03-20T01:04:57;2.87;;;2.50;;
15878;SDS011;61999;51.514;14.614;2023-03-20T01:07:25;2.80;;;2.57;;
15878;SDS011;61999;51.514;14.614;2023-03-20T01:09:55;3.87;;;3.40;;
15878;SDS011;61999;51.514;14.614;2023-03-20T01:12:23;4.73;;;3.60;;
15878;SDS011;61999;51.514;14.614;2023-03-20T01:14:52;2.97;;;2.67;;
15878;SDS011;61999;51.514;14.614;2023-03-20T01:17:24;4.37;;;3.40;;
15878;SDS011;61999;51.514;14.614;2023-03-20T01:19:54;3.47;;;3.17;;
15878;SDS011;61999;51.514;14.614;2023-03-20T01:22:22;4.80;;;3.17;;
15878;SDS011;61999;51.514;14.614;2023-03-20T01:24:50;2.80;;;2.60;;
15878;SDS011;61999;51.514;14.614;2023-03-20T01:27:19;3.53;;;3.23;;
15878;SDS011;61999;51.514;14.614;2023-03-20T01:29:48;3.60;;;3.30;;
15878;SDS011;61999;51.514;14.614;2023-03-20T01:32:17;3.30;;;3.00;;
15878;SDS011;61999;51.514;14.614;2023-03-20T01:34:46;3.63;;;3.07;;
15878;SDS011;61999;51.514;14.614;2023-03-20T01:37:16;3.30;;;3.00;;
15878;SDS011;61999;51.514;14.614;2023-03-20T01:39:50;3.77;;;3.27;;
15878;SDS011;61999;51.514;14.614;2023-03-20T01:42:19;3.63;;;3.33;;
15878;SDS011;61999;51.514;14.614;2023-03-20T01:44:47;2.90;;;2.70;;
15878;SDS011;61999;51.514;14.614;2023-03-20T01:47:16;3.50;;;2.67;;
15878;SDS011;61999;51.514;14.614;2023-03-20T01:52:53;3.50;;;3.20;;
15878;SDS011;61999;51.514;14.614;2023-03-20T01:55:36;5.37;;;4.87;;
15878;SDS011;61999;51.514;14.614;2023-03-20T01:58:11;6.00;;;5.40;;
15878;SDS011;61999;51.514;14.614;2023-03-20T02:00:43;5.50;;;4.60;;
15878;SDS011;61999;51.514;14.614;2023-03-20T02:03:14;4.27;;;3.87;;
15878;SDS011;61999;51.514;14.614;2023-03-20T02:05:43;6.90;;;5.07;;
15878;SDS011;61999;51.514;14.614;2023-03-20T02:08:14;4.90;;;4.33;;
15878;SDS011;61999;51.514;14.614;2023-03-20T02:10:51;6.07;;;5.13;;
15878;SDS011;61999;51.514;14.614;2023-03-20T02:13:23;6.53;;;5.87;;
15878;SDS011;61999;51.514;14.614;2023-03-20T02:15:56;6.70;;;5.40;;
15878;SDS011;61999;51.514;14.614;2023-03-20T02:18:30;6.53;;;5.83;;
15878;SDS011;61999;51.514;14.614;2023-03-20T02:21:13;5.87;;;5.27;;
15878;SDS011;61999;51.514;14.614;2023-03-20T02:24:32;5.90;;;5.40;;
15878;SDS011;61999;51.514;14.614;2023-03-20T02:27:48;6.67;;;6.07;;
15878;SDS011;61999;51.514;14.614;2023-03-20T02:30:54;6.50;;;5.90;;
15878;SDS011;61999;51.514;14.614;2023-03-20T02:34:02;7.30;;;6.60;;
15878;SDS011;61999;51.514;14.614;2023-03-20T02:40:11;7.70;;;6.87;;
15878;SDS011;61999;51.514;14.614;2023-03-20T02:42:53;7.20;;;6.50;;
15878;SDS011;61999;51.514;14.614;2023-03-20T02:45:32;6.70;;;6.10;;
15878;SDS011;61999;51.514;14.614;2023-03-20T02:48:12;6.60;;;6.10;;
15878;SDS011;61999;51.514;14.614;2023-03-20T02:50:54;8.10;;;5.90;;
15878;SDS011;61999;51.514;14.614;2023-03-20T02:53:35;6.97;;;6.30;;
15878;SDS011;61999;51.514;14.614;2023-03-20T02:56:16;7.83;;;7.13;;
15878;SDS011;61999;51.514;14.614;2023-03-20T02:58:51;7.60;;;6.90;;
15878;SDS011;61999;51.514;14.614;2023-03-20T03:01:34;7.50;;;6.80;;
15878;SDS011;61999;51.514;14.614;2023-03-20T03:04:10;8.80;;;7.90;;
15878;SDS011;61999;51.514;14.614;2023-03-20T03:06:44;7.70;;;7.00;;
15878;SDS011;61999;51.514;14.614;2023-03-20T03:09:18;8.57;;;7.73;;
15878;SDS011;61999;51.514;14.614;2023-03-20T03:11:54;7.27;;;6.60;;
15878;SDS011;61999;51.514;14.614;2023-03-20T03:14:31;7.80;;;7.17;;
15878;SDS011;61999;51.514;14.614;2023-03-20T03:17:05;9.03;;;8.13;;
15878;SDS011;61999;51.514;14.614;2023-03-20T03:19:36;8.63;;;7.80;;
15878;SDS011;61999;51.514;14.614;2023-03-20T03:22:10;8.90;;;8.00;;
15878;SDS011;61999;51.514;14.614;2023-03-20T03:24:42;8.20;;;7.40;;
15878;SDS011;61999;51.514;14.614;2023-03-20T03:27:15;8.00;;;7.20;;
15878;SDS011;61999;51.514;14.614;2023-03-20T03:29:49;8.03;;;7.20;;
15878;SDS011;61999;51.514;14.614;2023-03-20T03:32:24;7.90;;;7.10;;
15878;SDS011;61999;51.514;14.614;2023-03-20T03:34:56;8.00;;;7.20;;
15878;SDS011;61999;51.514;14.614;2023-03-20T03:37:28;8.20;;;7.30;;
15878;SDS011;61999;51.514;14.614;2023-03-20T03:40:13;8.10;;;7.30;;
15878;SDS011;61999;51.514;14.614;2023-03-20T03:42:50;8.37;;;7.20;;
15878;SDS011;61999;51.514;14.614;2023-03-20T03:45:28;7.70;;;6.90;;
15878;SDS011;61999;51.514;14.614;2023-03-20T03:48:05;7.73;;;7.03;;
15878;SDS011;61999;51.514;14.614;2023-03-20T03:50:39;8.93;;;7.10;;
15878;SDS011;61999;51.514;14.614;2023-03-20T03:53:14;8.23;;;7.40;;
15878;SDS011;61999;51.514;14.614;2023-03-20T03:55:51;8.50;;;7.57;;
15878;SDS011;61999;51.514;14.614;2023-03-20T03:58:25;8.63;;;7.93;;
15878;SDS011;61999;51.514;14.614;2023-03-20T04:00:57;8.60;;;7.70;;
15878;SDS011;61999;51.514;14.614;2023-03-20T04:03:31;7.57;;;6.87;;
15878;SDS011;61999;51.514;14.614;2023-03-20T04:06:06;7.50;;;6.80;;
15878;SDS011;61999;51.514;14.614;2023-03-20T04:08:38;7.93;;;7.23;;
15878;SDS011;61999;51.514;14.614;2023-03-20T04:11:09;7.57;;;6.87;;
15878;SDS011;61999;51.514;14.614;2023-03-20T04:13:42;7.37;;;6.67;;
15878;SDS011;61999;51.514;14.614;2023-03-20T04:16:14;7.40;;;6.70;;
15878;SDS011;61999;51.514;14.614;2023-03-20T04:18:43;7.80;;;7.10;;
15878;SDS011;61999;51.514;14.614;2023-03-20T04:21:12;8.17;;;7.37;;
15878;SDS011;61999;51.514;14.614;2023-03-20T04:23:41;8.10;;;7.07;;
15878;SDS011;61999;51.514;14.614;2023-03-20T04:26:10;8.10;;;6.60;;
15878;SDS011;61999;51.514;14.614;2023-03-20T04:28:39;8.07;;;7.27;;
15878;SDS011;61999;51.514;14.614;2023-03-20T04:31:07;7.60;;;6.90;;
15878;SDS011;61999;51.514;14.614;2023-03-20T04:33:35;8.00;;;7.30;;
15878;SDS011;61999;51.514;14.614;2023-03-20T04:36:03;8.50;;;7.63;;
15878;SDS011;61999;51.514;14.614;2023-03-20T04:38:32;7.63;;;6.87;;
15878;SDS011;61999;51.514;14.614;2023-03-20T04:41:00;8.07;;;7.30;;
15878;SDS011;61999;51.514;14.614;2023-03-20T04:43:29;7.67;;;6.97;;
15878;SDS011;61999;51.514;14.614;2023-03-20T04:45:57;9.47;;;8.57;;
15878;SDS011;61999;51.514;14.614;2023-03-20T04:48:25;8.07;;;7.37;;
15878;SDS011;61999;51.514;14.614;2023-03-20T04:50:54;9.37;;;8.37;;
15878;SDS011;61999;51.514;14.614;2023-03-20T04:53:22;9.27;;;8.37;;
15878;SDS011;61999;51.514;14.614;2023-03-20T04:55:52;7.83;;;7.17;;
15878;SDS011;61999;51.514;14.614;2023-03-20T04:58:20;7.77;;;7.17;;
15878;SDS011;61999;51.514;14.614;2023-03-20T05:00:50;8.00;;;7.20;;
15878;SDS011;61999;51.514;14.614;2023-03-20T05:03:18;7.07;;;6.23;;
15878;SDS011;61999;51.514;14.614;2023-03-20T05:05:48;7.07;;;6.43;;
15878;SDS011;61999;51.514;14.614;2023-03-20T05:08:16;7.57;;;6.83;;
15878;SDS011;61999;51.514;14.614;2023-03-20T05:10:44;7.37;;;6.60;;
15878;SDS011;61999;51.514;14.614;2023-03-20T05:13:12;7.10;;;6.33;;
15878;SDS011;61999;51.514;14.614;2023-03-20T05:15:40;7.17;;;6.47;;
15878;SDS011;61999;51.514;14.614;2023-03-20T05:18:10;7.20;;;6.50;;
15878;SDS011;61999;51.514;14.614;2023-03-20T05:20:38;6.67;;;6.07;;
15878;SDS011;61999;51.514;14.614;2023-03-20T05:23:06;6.97;;;6.37;;
15878;SDS011;61999;51.514;14.614;2023-03-20T05:25:34;7.37;;;6.67;;
15878;SDS011;61999;51.514;14.614;2023-03-20T05:28:02;7.07;;;6.40;;
15878;SDS011;61999;51.514;14.614;2023-03-20T05:30:30;6.70;;;6.10;;
15878;SDS011;61999;51.514;14.614;2023-03-20T05:32:59;6.17;;;5.57;;
15878;SDS011;61999;51.514;14.614;2023-03-20T05:35:28;6.23;;;5.73;;
15878;SDS011;61999;51.514;14.614;2023-03-20T05:37:56;7.03;;;6.43;;
15878;SDS011;61999;51.514;14.614;2023-03-20T05:40:24;6.27;;;5.57;;
15878;SDS011;61999;51.514;14.614;2023-03-20T05:42:52;7.17;;;6.13;;
15878;SDS011;61999;51.514;14.614;2023-03-20T05:45:20;6.43;;;5.83;;
15878;SDS011;61999;51.514;14.614;2023-03-20T05:47:48;6.50;;;5.90;;
15878;SDS011;61999;51.514;14.614;2023-03-20T05:50:16;6.27;;;5.70;;
15878;SDS011;61999;51.514;14.614;2023-03-20T05:52:46;6.67;;;5.97;;
15878;SDS011;61999;51.514;14.614;2023-03-20T05:55:14;8.07;;;5.90;;
15878;SDS011;61999;51.514;14.614;2023-03-20T05:57:44;6.83;;;5.97;;
15878;SDS011;61999;51.514;14.614;2023-03-20T06:00:12;6.73;;;5.30;;
15878;SDS011;61999;51.514;14.614;2023-03-20T06:02:41;9.33;;;6.80;;
15878;SDS011;61999;51.514;14.614;2023-03-20T06:05:12;8.43;;;6.50;;
15878;SDS011;61999;51.514;14.614;2023-03-20T06:07:40;7.40;;;6.70;;
15878;SDS011;61999;51.514;14.614;2023-03-20T06:10:10;8.20;;;6.07;;
15878;SDS011;61999;51.514;14.614;2023-03-20T06:12:38;7.70;;;6.27;;
15878;SDS011;61999;51.514;14.614;2023-03-20T06:15:06;6.57;;;5.97;;
15878;SDS011;61999;51.514;14.614;2023-03-20T06:17:35;7.20;;;6.50;;
15878;SDS011;61999;51.514;14.614;2023-03-20T06:20:03;7.57;;;6.73;;
15878;SDS011;61999;51.514;14.614;2023-03-20T06:22:32;8.10;;;6.60;;
15878;SDS011;61999;51.514;14.614;2023-03-20T06:25:00;7.47;;;6.63;;
15878;SDS011;61999;51.514;14.614;2023-03-20T06:27:30;6.97;;;6.27;;
15878;SDS011;61999;51.514;14.614;2023-03-20T06:29:57;7.20;;;6.50;;
15878;SDS011;61999;51.514;14.614;2023-03-20T06:32:25;6.17;;;5.57;;
15878;SDS011;61999;51.514;14.614;2023-03-20T06:34:53;6.97;;;6.27;;
15878;SDS011;61999;51.514;14.614;2023-03-20T06:37:21;6.20;;;5.70;;
15878;SDS011;61999;51.514;14.614;2023-03-20T06:39:49;7.83;;;5.90;;
15878;SDS011;61999;51.514;14.614;2023-03-20T06:42:17;6.43;;;5.83;;
15878;SDS011;61999;51.514;14.614;2023-03-20T06:44:46;6.90;;;6.30;;
15878;SDS011;61999;51.514;14.614;2023-03-20T06:47:14;7.03;;;6.33;;
15878;SDS011;61999;51.514;14.614;2023-03-20T06:49:42;7.53;;;6.20;;
15878;SDS011;61999;51.514;14.614;2023-03-20T06:52:11;6.77;;;6.03;;
15878;SDS011;61999;51.514;14.614;2023-03-20T06:54:43;6.80;;;6.10;;
15878;SDS011;61999;51.514;14.614;2023-03-20T06:57:12;7.47;;;6.47;;
15878;SDS011;61999;51.514;14.614;2023-03-20T06:59:42;6.57;;;5.97;;
15878;SDS011;61999;51.514;14.614;2023-03-20T07:02:12;7.47;;;6.23;;
15878;SDS011;61999;51.514;14.614;2023-03-20T07:04:40;7.13;;;6.13;;
15878;SDS011;61999;51.514;14.614;2023-03-20T07:07:08;6.33;;;5.73;;
15878;SDS011;61999;51.514;14.614;2023-03-20T07:09:35;6.80;;;6.10;;
15878;SDS011;61999;51.514;14.614;2023-03-20T07:12:03;6.80;;;6.10;;
15878;SDS011;61999;51.514;14.614;2023-03-20T07:14:31;7.13;;;6.27;;
15878;SDS011;61999;51.514;14.614;2023-03-20T07:16:59;6.80;;;6.03;;
15878;SDS011;61999;51.514;14.614;2023-03-20T07:19:28;6.43;;;4.90;;
15878;SDS011;61999;51.514;14.614;2023-03-20T07:21:57;6.70;;;6.00;;
15878;SDS011;61999;51.514;14.614;2023-03-20T07:24:28;6.40;;;5.77;;
15878;SDS011;61999;51.514;14.614;2023-03-20T07:26:57;6.80;;;6.10;;
15878;SDS011;61999;51.514;14.614;2023-03-20T07:29:25;6.90;;;5.87;;
15878;SDS011;61999;51.514;14.614;2023-03-20T07:31:53;7.57;;;5.73;;
15878;SDS011;61999;51.514;14.614;2023-03-20T07:34:21;6.27;;;5.70;;
15878;SDS011;61999;51.514;14.614;2023-03-20T07:36:50;6.60;;;5.93;;
15878;SDS011;61999;51.514;14.614;2023-03-20T07:39:18;7.60;;;6.10;;
15878;SDS011;61999;51.514;14.614;2023-03-20T07:41:47;6.90;;;6.20;;
15878;SDS011;61999;51.514;14.614;2023-03-20T07:44:15;6.83;;;5.90;;
15878;SDS011;61999;51.514;14.614;2023-03-20T07:46:44;6.37;;;5.73;;
15878;SDS011;61999;51.514;14.614;2023-03-20T07:49:13;6.60;;;5.43;;
15878;SDS011;61999;51.514;14.614;2023-03-20T07:51:43;6.40;;;5.90;;
15878;SDS011;61999;51.514;14.614;2023-03-20T07:54:12;6.20;;;5.60;;
15878;SDS011;61999;51.514;14.614;2023-03-20T07:56:41;5.90;;;5.37;;
15878;SDS011;61999;51.514;14.614;2023-03-20T07:59:09;5.87;;;5.17;;
15878;SDS011;61999;51.514;14.614;2023-03-20T08:01:37;5.67;;;5.17;;
15878;SDS011;61999;51.514;14.614;2023-03-20T08:04:05;7.43;;;5.83;;
15878;SDS011;61999;51.514;14.614;2023-03-20T08:06:34;5.90;;;5.40;;
15878;SDS011;61999;51.514;14.614;2023-03-20T08:09:04;5.97;;;5.33;;
15878;SDS011;61999;51.514;14.614;2023-03-20T08:11:34;15.03;;;9.37;;
15878;SDS011;61999;51.514;14.614;2023-03-20T08:14:04;26.07;;;15.83;;
15878;SDS011;61999;51.514;14.614;2023-03-20T08:16:32;23.40;;;14.73;;
15878;SDS011;61999;51.514;14.614;2023-03-20T08:19:00;14.43;;;11.00;;
15878;SDS011;61999;51.514;14.614;2023-03-20T08:21:30;6.70;;;6.00;;
15878;SDS011;61999;51.514;14.614;2023-03-20T08:23:59;9.27;;;7.60;;
15878;SDS011;61999;51.514;14.614;2023-03-20T08:26:27;8.37;;;7.17;;
15878;SDS011;61999;51.514;14.614;2023-03-20T08:28:57;6.07;;;5.57;;
15878;SDS011;61999;51.514;14.614;2023-03-20T08:31:24;6.47;;;5.40;;
15878;SDS011;61999;51.514;14.614;2023-03-20T08:33:53;11.57;;;9.10;;
15878;SDS011;61999;51.514;14.614;2023-03-20T08:36:22;5.87;;;5.27;;
15878;SDS011;61999;51.514;14.614;2023-03-20T08:38:51;6.27;;;5.60;;
15878;SDS011;61999;51.514;14.614;2023-03-20T08:41:19;9.17;;;7.20;;
15878;SDS011;61999;51.514;14.614;2023-03-20T08:43:46;6.60;;;6.00;;
15878;SDS011;61999;51.514;14.614;2023-03-20T08:46:16;7.70;;;6.90;;
15878;SDS011;61999;51.514;14.614;2023-03-20T08:48:44;7.27;;;6.47;;
15878;SDS011;61999;51.514;14.614;2023-03-20T08:51:11;9.93;;;8.93;;
15878;SDS011;61999;51.514;14.614;2023-03-20T08:53:40;10.63;;;9.40;;
15878;SDS011;61999;51.514;14.614;2023-03-20T08:56:08;9.77;;;8.70;;
15878;SDS011;61999;51.514;14.614;2023-03-20T08:58:37;10.17;;;9.17;;
15878;SDS011;61999;51.514;14.614;2023-03-20T09:01:05;10.00;;;8.60;;
15878;SDS011;61999;51.514;14.614;2023-03-20T09:03:36;8.87;;;7.97;;
15878;SDS011;61999;51.514;14.614;2023-03-20T09:06:05;10.60;;;8.30;;
15878;SDS011;61999;51.514;14.614;2023-03-20T09:08:34;8.47;;;7.57;;
15878;SDS011;61999;51.514;14.614;2023-03-20T09:11:03;11.07;;;10.03;;
15878;SDS011;61999;51.514;14.614;2023-03-20T09:13:32;9.90;;;8.90;;
15878;SDS011;61999;51.514;14.614;2023-03-20T09:16:00;9.33;;;7.60;;
15878;SDS011;61999;51.514;14.614;2023-03-20T09:18:29;12.00;;;9.27;;
15878;SDS011;61999;51.514;14.614;2023-03-20T09:20:59;13.47;;;11.93;;
15878;SDS011;61999;51.514;14.614;2023-03-20T09:23:26;24.40;;;15.33;;
15878;SDS011;61999;51.514;14.614;2023-03-20T09:25:54;10.63;;;9.37;;
15878;SDS011;61999;51.514;14.614;2023-03-20T09:28:22;9.07;;;8.17;;
15878;SDS011;61999;51.514;14.614;2023-03-20T09:30:53;8.43;;;7.60;;
15878;SDS011;61999;51.514;14.614;2023-03-20T09:33:22;10.77;;;8.33;;
15878;SDS011;61999;51.514;14.614;2023-03-20T09:35:50;8.33;;;7.53;;
15878;SDS011;61999;51.514;14.614;2023-03-20T09:38:20;8.47;;;7.67;;
15878;SDS011;61999;51.514;14.614;2023-03-20T09:40:50;8.73;;;7.60;;
15878;SDS011;61999;51.514;14.614;2023-03-20T09:46:29;8.60;;;7.43;;
15878;SDS011;61999;51.514;14.614;2023-03-20T09:49:16;7.73;;;6.50;;
15878;SDS011;61999;51.514;14.614;2023-03-20T09:52:08;9.70;;;8.03;;
15878;SDS011;61999;51.514;14.614;2023-03-20T09:54:49;10.30;;;8.83;;
15878;SDS011;61999;51.514;14.614;2023-03-20T09:57:22;9.00;;;8.23;;
15878;SDS011;61999;51.514;14.614;2023-03-20T09:59:56;9.43;;;8.53;;
15878;SDS011;61999;51.514;14.614;2023-03-20T10:02:33;8.73;;;7.77;;
15878;SDS011;61999;51.514;14.614;2023-03-20T10:05:16;8.37;;;7.57;;
15878;SDS011;61999;51.514;14.614;2023-03-20T10:07:51;7.77;;;7.07;;
15878;SDS011;61999;51.514;14.614;2023-03-20T10:10:26;7.07;;;6.33;;
15878;SDS011;61999;51.514;14.614;2023-03-20T10:13:09;10.43;;;9.20;;
15878;SDS011;61999;51.514;14.614;2023-03-20T10:16:05;8.80;;;8.00;;
15878;SDS011;61999;51.514;14.614;2023-03-20T10:18:45;8.70;;;7.27;;
15878;SDS011;61999;51.514;14.614;2023-03-20T10:21:21;9.00;;;7.17;;
15878;SDS011;61999;51.514;14.614;2023-03-20T10:23:59;6.90;;;6.20;;
15878;SDS011;61999;51.514;14.614;2023-03-20T10:26:34;9.07;;;7.27;;
15878;SDS011;61999;51.514;14.614;2023-03-20T10:29:04;7.57;;;6.87;;
15878;SDS011;61999;51.514;14.614;2023-03-20T10:31:46;11.13;;;8.67;;
15878;SDS011;61999;51.514;14.614;2023-03-20T10:34:42;9.03;;;7.23;;
15878;SDS011;61999;51.514;14.614;2023-03-20T10:37:31;7.93;;;6.77;;
15878;SDS011;61999;51.514;14.614;2023-03-20T10:40:21;7.70;;;7.00;;
15878;SDS011;61999;51.514;14.614;2023-03-20T10:42:56;9.53;;;7.50;;
15878;SDS011;61999;51.514;14.614;2023-03-20T10:45:30;8.00;;;6.90;;
15878;SDS011;61999;51.514;14.614;2023-03-20T10:48:08;8.80;;;7.57;;
15878;SDS011;61999;51.514;14.614;2023-03-20T10:50:48;8.60;;;7.80;;
15878;SDS011;61999;51.514;14.614;2023-03-20T10:53:23;8.33;;;7.53;;
15878;SDS011;61999;51.514;14.614;2023-03-20T10:55:58;8.50;;;7.60;;
15878;SDS011;61999;51.514;14.614;2023-03-20T10:58:34;9.00;;;8.10;;
15878;SDS011;61999;51.514;14.614;2023-03-20T11:01:05;9.53;;;8.53;;
15878;SDS011;61999;51.514;14.614;2023-03-20T11:03:34;8.33;;;7.40;;
15878;SDS011;61999;51.514;14.614;2023-03-20T11:06:05;8.03;;;7.30;;
15878;SDS011;61999;51.514;14.614;2023-03-20T11:08:45;9.30;;;8.50;;
15878;SDS011;61999;51.514;14.614;2023-03-20T11:11:20;9.30;;;8.40;;
15878;SDS011;61999;51.514;14.614;2023-03-20T11:13:53;14.30;;;10.10;;
15878;SDS011;61999;51.514;14.614;2023-03-20T11:16:22;12.30;;;10.87;;
15878;SDS011;61999;51.514;14.614;2023-03-20T11:18:56;14.93;;;13.07;;
15878;SDS011;61999;51.514;14.614;2023-03-20T11:21:32;14.40;;;12.90;;
15878;SDS011;61999;51.514;14.614;2023-03-20T11:24:19;14.60;;;12.50;;
15878;SDS011;61999;51.514;14.614;2023-03-20T11:27:07;11.90;;;10.70;;
15878;SDS011;61999;51.514;14.614;2023-03-20T11:29:39;10.70;;;9.60;;
15878;SDS011;61999;51.514;14.614;2023-03-20T11:32:15;9.47;;;8.57;;
15878;SDS011;61999;51.514;14.614;2023-03-20T11:34:54;9.73;;;8.53;;
15878;SDS011;61999;51.514;14.614;2023-03-20T11:37:24;8.37;;;7.57;;
15878;SDS011;61999;51.514;14.614;2023-03-20T11:39:55;8.33;;;7.50;;
15878;SDS011;61999;51.514;14.614;2023-03-20T11:42:26;7.77;;;7.07;;
15878;SDS011;61999;51.514;14.614;2023-03-20T11:44:59;6.60;;;6.00;;
15878;SDS011;61999;51.514;14.614;2023-03-20T11:47:30;7.30;;;6.60;;
15878;SDS011;61999;51.514;14.614;2023-03-20T11:50:02;8.40;;;7.60;;
15878;SDS011;61999;51.514;14.614;2023-03-20T11:52:33;8.43;;;7.53;;
15878;SDS011;61999;51.514;14.614;2023-03-20T11:55:04;7.63;;;6.93;;
15878;SDS011;61999;51.514;14.614;2023-03-20T11:57:51;7.20;;;6.50;;
15878;SDS011;61999;51.514;14.614;2023-03-20T12:00:27;7.13;;;6.40;;
15878;SDS011;61999;51.514;14.614;2023-03-20T12:03:05;7.23;;;6.50;;
15878;SDS011;61999;51.514;14.614;2023-03-20T12:06:06;6.27;;;5.73;;
15878;SDS011;61999;51.514;14.614;2023-03-20T12:08:42;7.67;;;6.97;;
15878;SDS011;61999;51.514;14.614;2023-03-20T12:14:16;8.70;;;7.80;;
15878;SDS011;61999;51.514;14.614;2023-03-20T12:16:56;8.10;;;7.30;;
15878;SDS011;61999;51.514;14.614;2023-03-20T12:19:41;7.63;;;6.93;;
15878;SDS011;61999;51.514;14.614;2023-03-20T12:22:14;9.50;;;8.60;;
15878;SDS011;61999;51.514;14.614;2023-03-20T12:24:51;7.43;;;6.73;;
15878;SDS011;61999;51.514;14.614;2023-03-20T12:27:28;8.10;;;7.30;;
15878;SDS011;61999;51.514;14.614;2023-03-20T12:30:03;7.77;;;7.07;;
15878;SDS011;61999;51.514;14.614;2023-03-20T12:32:43;9.70;;;8.70;;
15878;SDS011;61999;51.514;14.614;2023-03-20T12:35:23;8.40;;;7.60;;
15878;SDS011;61999;51.514;14.614;2023-03-20T12:37:54;9.30;;;8.47;;
15878;SDS011;61999;51.514;14.614;2023-03-20T12:40:27;8.90;;;7.30;;
15878;SDS011;61999;51.514;14.614;2023-03-20T12:43:10;8.27;;;7.47;;
15878;SDS011;61999;51.514;14.614;2023-03-20T12:45:46;9.77;;;6.33;;
15878;SDS011;61999;51.514;14.614;2023-03-20T12:48:37;7.07;;;6.20;;
15878;SDS011;61999;51.514;14.614;2023-03-20T12:51:33;8.50;;;7.70;;
15878;SDS011;61999;51.514;14.614;2023-03-20T12:54:23;8.07;;;7.27;;
15878;SDS011;61999;51.514;14.614;2023-03-20T12:57:11;7.17;;;6.47;;
15878;SDS011;61999;51.514;14.614;2023-03-20T13:00:01;8.37;;;7.50;;
15878;SDS011;61999;51.514;14.614;2023-03-20T13:02:44;7.97;;;7.17;;
15878;SDS011;61999;51.514;14.614;2023-03-20T13:05:32;8.53;;;7.50;;
15878;SDS011;61999;51.514;14.614;2023-03-20T13:08:22;8.47;;;7.43;;
15878;SDS011;61999;51.514;14.614;2023-03-20T13:11:11;6.33;;;5.73;;
15878;SDS011;61999;51.514;14.614;2023-03-20T13:13:48;9.03;;;8.13;;
15878;SDS011;61999;51.514;14.614;2023-03-20T13:16:25;5.43;;;4.83;;
15878;SDS011;61999;51.514;14.614;2023-03-20T13:19:08;8.13;;;6.60;;
15878;SDS011;61999;51.514;14.614;2023-03-20T13:21:54;8.23;;;6.83;;
15878;SDS011;61999;51.514;14.614;2023-03-20T13:24:32;5.27;;;4.77;;
15878;SDS011;61999;51.514;14.614;2023-03-20T13:27:11;6.40;;;5.67;;
15878;SDS011;61999;51.514;14.614;2023-03-20T13:29:51;5.50;;;5.00;;
15878;SDS011;61999;51.514;14.614;2023-03-20T13:32:33;6.70;;;6.07;;
15878;SDS011;61999;51.514;14.614;2023-03-20T13:35:27;7.37;;;6.07;;
15878;SDS011;61999;51.514;14.614;2023-03-20T13:38:13;8.20;;;7.03;;
15878;SDS011;61999;51.514;14.614;2023-03-20T13:40:46;7.77;;;6.97;;
15878;SDS011;61999;51.514;14.614;2023-03-20T13:43:25;8.77;;;7.03;;
15878;SDS011;61999;51.514;14.614;2023-03-20T13:46:01;8.23;;;7.43;;
15878;SDS011;61999;51.514;14.614;2023-03-20T13:48:34;9.83;;;7.73;;
15878;SDS011;61999;51.514;14.614;2023-03-20T13:54:02;11.67;;;9.37;;
15878;SDS011;61999;51.514;14.614;2023-03-20T13:56:49;9.97;;;8.90;;
15878;SDS011;61999;51.514;14.614;2023-03-20T13:59:42;10.33;;;9.00;;
15878;SDS011;61999;51.514;14.614;2023-03-20T14:02:30;13.07;;;11.53;;
15878;SDS011;61999;51.514;14.614;2023-03-20T14:05:13;12.00;;;9.33;;
15878;SDS011;61999;51.514;14.614;2023-03-20T14:07:47;11.57;;;10.23;;
15878;SDS011;61999;51.514;14.614;2023-03-20T14:10:35;12.03;;;9.73;;
15878;SDS011;61999;51.514;14.614;2023-03-20T14:13:12;10.60;;;8.93;;
15878;SDS011;61999;51.514;14.614;2023-03-20T14:15:45;15.30;;;12.17;;
15878;SDS011;61999;51.514;14.614;2023-03-20T14:18:20;13.37;;;11.33;;
15878;SDS011;61999;51.514;14.614;2023-03-20T14:20:52;15.57;;;12.20;;
15878;SDS011;61999;51.514;14.614;2023-03-20T14:23:27;16.97;;;13.37;;
15878;SDS011;61999;51.514;14.614;2023-03-20T14:26:08;13.77;;;11.17;;
15878;SDS011;61999;51.514;14.614;2023-03-20T14:28:45;14.80;;;12.67;;
15878;SDS011;61999;51.514;14.614;2023-03-20T14:31:22;16.40;;;12.80;;
15878;SDS011;61999;51.514;14.614;2023-03-20T14:33:58;13.67;;;11.33;;
15878;SDS011;61999;51.514;14.614;2023-03-20T14:36:43;20.57;;;17.20;;
15878;SDS011;61999;51.514;14.614;2023-03-20T14:39:19;23.47;;;18.90;;
15878;SDS011;61999;51.514;14.614;2023-03-20T14:42:18;21.30;;;16.67;;
15878;SDS011;61999;51.514;14.614;2023-03-20T14:45:01;17.80;;;14.37;;
15878;SDS011;61999;51.514;14.614;2023-03-20T14:48:07;21.97;;;16.43;;
15878;SDS011;61999;51.514;14.614;2023-03-20T14:51:03;19.97;;;17.13;;
15878;SDS011;61999;51.514;14.614;2023-03-20T14:53:49;20.70;;;16.83;;
15878;SDS011;61999;51.514;14.614;2023-03-20T14:56:26;18.53;;;15.67;;
15878;SDS011;61999;51.514;14.614;2023-03-20T14:59:02;17.93;;;14.57;;
15878;SDS011;61999;51.514;14.614;2023-03-20T15:01:42;17.40;;;13.43;;
15878;SDS011;61999;51.514;14.614;2023-03-20T15:04:23;17.50;;;14.33;;
15878;SDS011;61999;51.514;14.614;2023-03-20T15:07:05;18.20;;;13.53;;
15878;SDS011;61999;51.514;14.614;2023-03-20T15:09:42;18.87;;;14.40;;
15878;SDS011;61999;51.514;14.614;2023-03-20T15:12:14;19.90;;;14.00;;
15878;SDS011;61999;51.514;14.614;2023-03-20T15:14:51;18.87;;;14.50;;
15878;SDS011;61999;51.514;14.614;2023-03-20T15:17:23;17.80;;;13.33;;
15878;SDS011;61999;51.514;14.614;2023-03-20T15:20:00;18.77;;;13.37;;
15878;SDS011;61999;51.514;14.614;2023-03-20T15:22:46;17.93;;;13.17;;
15878;SDS011;61999;51.514;14.614;2023-03-20T15:25:15;18.83;;;13.97;;
15878;SDS011;61999;51.514;14.614;2023-03-20T15:27:45;17.23;;;14.03;;